sensor_id;sensor_type;location;lat;lon;timestamp;pressure;altitude;pressure_sealevel;temperature;humidity
68793;BME280;55778;54.346;10.210;2023-04-08T00:01:00;102044.75;;;5.61;100.00
68793;BME280;55778;54.346;10.210;2023-04-08T00:03:25;102035.91;;;5.58;100.00
68793;BME280;55778;54.346;10.210;2023-04-08T00:05:51;102047.06;;;5.52;100.00
68793;BME280;55778;54.346;10.210;2023-04-08T00:08:16;102041.97;;;5.63;100.00
68793;BME280;55778;54.346;10.210;2023-04-08T00:10:41;102052.13;;;5.58;100.00
68793;BME280;55778;54.346;10.210;2023-04-08T00:13:07;102054.75;;;5.59;100.00
68793;BME280;55778;54.346;10.210;2023-04-08T00:15:32;102053.34;;;5.52;100.00
68793;BME280;55778;54.346;10.210;2023-04-08T00:17:58;102053.66;;;5.63;100.00
68793;BME280;55778;54.346;10.210;2023-04-08T00:20:23;102061.31;;;5.55;100.00
68793;BME280;55778;54.346;10.210;2023-04-08T00:22:49;102052.22;;;5.56;100.00
68793;BME280;55778;54.346;10.210;2023-04-08T00:25:15;102059.47;;;5.56;100.00
68793;BME280;55778;54.346;10.210;2023-04-08T00:27:41;102055.09;;;5.53;100.00
68793;BME280;55778;54.346;10.210;2023-04-08T00:30:09;102052.78;;;5.63;100.00
68793;BME280;55778;54.346;10.210;2023-04-08T00:32:36;102061.53;;;5.51;100.00
68793;BME280;55778;54.346;10.210;2023-04-08T00:35:02;102063.44;;;5.66;100.00
68793;BME280;55778;54.346;10.210;2023-04-08T00:37:27;102067.47;;;5.74;100.00
68793;BME280;55778;54.346;10.210;2023-04-08T00:39:52;102065.09;;;5.68;100.00
68793;BME280;55778;54.346;10.210;2023-04-08T00:42:18;102065.97;;;5.69;100.00
68793;BME280;55778;54.346;10.210;2023-04-08T00:44:45;102063.44;;;5.66;100.00
68793;BME280;55778;54.346;10.210;2023-04-08T00:47:12;102073.13;;;5.70;100.00
68793;BME280;55778;54.346;10.210;2023-04-08T00:49:37;102062.28;;;5.70;100.00
68793;BME280;55778;54.346;10.210;2023-04-08T00:52:03;102068.84;;;5.66;100.00
68793;BME280;55778;54.346;10.210;2023-04-08T00:54:29;102058.19;;;5.63;100.00
68793;BME280;55778;54.346;10.210;2023-04-08T00:56:55;102068.38;;;5.58;100.00
68793;BME280;55778;54.346;10.210;2023-04-08T00:59:21;102058.19;;;5.63;100.00
68793;BME280;55778;54.346;10.210;2023-04-08T01:01:58;102059.84;;;5.65;100.00
68793;BME280;55778;54.346;10.210;2023-04-08T01:07:22;102058.75;;;5.52;100.00
68793;BME280;55778;54.346;10.210;2023-04-08T01:10:01;102059.84;;;5.65;100.00
68793;BME280;55778;54.346;10.210;2023-04-08T01:12:31;102065.56;;;5.59;100.00
68793;BME280;55778;54.346;10.210;2023-04-08T01:15:04;102067.19;;;5.63;100.00
68793;BME280;55778;54.346;10.210;2023-04-08T01:17:31;102063.81;;;5.75;100.00
68793;BME280;55778;54.346;10.210;2023-04-08T01:19:59;102064.72;;;5.59;100.00
68793;BME280;55778;54.346;10.210;2023-04-08T01:25:22;102058.19;;;5.63;100.00
68793;BME280;55778;54.346;10.210;2023-04-08T01:27:48;102056.97;;;5.68;100.00
68793;BME280;55778;54.346;10.210;2023-04-08T01:30:17;102060.97;;;5.61;100.00
68793;BME280;55778;54.346;10.210;2023-04-08T01:32:45;102059.59;;;5.70;100.00
68793;BME280;55778;54.346;10.210;2023-04-08T01:35:11;102061.88;;;5.77;100.00
68793;BME280;55778;54.346;10.210;2023-04-08T01:37:38;102064.72;;;5.59;100.00
68793;BME280;55778;54.346;10.210;2023-04-08T01:40:06;102065.34;;;5.64;100.00
68793;BME280;55778;54.346;10.210;2023-04-08T01:42:34;102067.78;;;5.68;100.00
68793;BME280;55778;54.346;10.210;2023-04-08T01:45:02;102065.97;;;5.69;100.00
68793;BME280;55778;54.346;10.210;2023-04-08T01:47:28;102058.19;;;5.63;100.00
68793;BME280;55778;54.346;10.210;2023-04-08T01:49:55;102061.13;;;5.58;100.00
68793;BME280;55778;54.346;10.210;2023-04-08T01:52:22;102066.03;;;5.67;100.00
68793;BME280;55778;54.346;10.210;2023-04-08T01:54:49;102062.72;;;5.62;100.00
68793;BME280;55778;54.346;10.210;2023-04-08T01:57:21;102064.41;;;5.65;100.00
68793;BME280;55778;54.346;10.210;2023-04-08T01:59:50;102060.00;;;5.62;100.00
68793;BME280;55778;54.346;10.210;2023-04-08T02:02:19;102072.59;;;5.63;100.00
68793;BME280;55778;54.346;10.210;2023-04-08T02:04:45;102064.63;;;5.60;100.00
68793;BME280;55778;54.346;10.210;2023-04-08T02:07:11;102071.22;;;5.72;100.00
68793;BME280;55778;54.346;10.210;2023-04-08T02:09:37;102073.28;;;5.67;100.00
68793;BME280;55778;54.346;10.210;2023-04-08T02:12:02;102061.78;;;5.63;100.00
68793;BME280;55778;54.346;10.210;2023-04-08T02:14:28;102061.38;;;5.54;100.00
68793;BME280;55778;54.346;10.210;2023-04-08T02:17:18;102064.72;;;5.59;100.00
68793;BME280;55778;54.346;10.210;2023-04-08T02:20:06;102060.34;;;5.56;100.00
68793;BME280;55778;54.346;10.210;2023-04-08T02:22:43;102061.13;;;5.58;100.00
68793;BME280;55778;54.346;10.210;2023-04-08T02:25:14;102066.78;;;5.54;100.00
68793;BME280;55778;54.346;10.210;2023-04-08T02:27:41;102066.78;;;5.54;100.00
68793;BME280;55778;54.346;10.210;2023-04-08T02:30:10;102072.59;;;5.46;100.00
68793;BME280;55778;54.346;10.210;2023-04-08T02:32:36;102068.50;;;5.39;100.00
68793;BME280;55778;54.346;10.210;2023-04-08T02:35:03;102067.66;;;5.54;100.00
68793;BME280;55778;54.346;10.210;2023-04-08T02:37:32;102062.50;;;5.50;100.00
68793;BME280;55778;54.346;10.210;2023-04-08T02:39:58;102072.34;;;5.51;100.00
68793;BME280;55778;54.346;10.210;2023-04-08T02:42:25;102068.44;;;5.56;100.00
68793;BME280;55778;54.346;10.210;2023-04-08T02:44:50;102072.13;;;5.55;100.00
68793;BME280;55778;54.346;10.210;2023-04-08T02:47:15;102065.97;;;5.52;100.00
68793;BME280;55778;54.346;10.210;2023-04-08T02:49:41;102071.22;;;5.55;100.00
68793;BME280;55778;54.346;10.210;2023-04-08T02:52:06;102075.38;;;5.45;100.00
68793;BME280;55778;54.346;10.210;2023-04-08T02:54:32;102070.63;;;5.50;100.00
68793;BME280;55778;54.346;10.210;2023-04-08T02:56:57;102067.28;;;5.45;100.00
68793;BME280;55778;54.346;10.210;2023-04-08T02:59:22;102072.25;;;5.37;100.00
68793;BME280;55778;54.346;10.210;2023-04-08T03:01:48;102072.06;;;5.40;100.00
68793;BME280;55778;54.346;10.210;2023-04-08T03:04:13;102080.34;;;5.37;100.00
68793;BME280;55778;54.346;10.210;2023-04-08T03:06:39;102086.22;;;5.28;100.00
68793;BME280;55778;54.346;10.210;2023-04-08T03:09:04;102083.91;;;5.37;100.00
68793;BME280;55778;54.346;10.210;2023-04-08T03:11:30;102092.66;;;5.42;100.00
68793;BME280;55778;54.346;10.210;2023-04-08T03:13:56;102091.25;;;5.35;100.00
68793;BME280;55778;54.346;10.210;2023-04-08T03:16:22;102086.53;;;5.39;100.00
68793;BME280;55778;54.346;10.210;2023-04-08T03:18:48;102085.09;;;5.32;100.00
68793;BME280;55778;54.346;10.210;2023-04-08T03:21:14;102089.47;;;5.34;100.00
68793;BME280;55778;54.346;10.210;2023-04-08T03:23:39;102094.50;;;5.25;100.00
68793;BME280;55778;54.346;10.210;2023-04-08T03:26:05;102087.09;;;5.28;100.00
68793;BME280;55778;54.346;10.210;2023-04-08T03:28:30;102083.59;;;5.26;100.00
68793;BME280;55778;54.346;10.210;2023-04-08T03:30:55;102091.16;;;5.20;100.00
68793;BME280;55778;54.346;10.210;2023-04-08T03:33:21;102098.13;;;5.24;100.00
68793;BME280;55778;54.346;10.210;2023-04-08T03:35:46;102091.56;;;5.29;100.00
68793;BME280;55778;54.346;10.210;2023-04-08T03:38:12;102097.97;;;5.27;100.00
68793;BME280;55778;54.346;10.210;2023-04-08T03:40:37;102092.03;;;5.20;100.00
68793;BME280;55778;54.346;10.210;2023-04-08T03:43:03;102097.13;;;5.26;100.00
68793;BME280;55778;54.346;10.210;2023-04-08T03:45:30;102090.03;;;5.24;100.00
68793;BME280;55778;54.346;10.210;2023-04-08T03:47:56;102089.25;;;5.22;100.00
68793;BME280;55778;54.346;10.210;2023-04-08T03:50:21;102088.63;;;5.34;100.00
68793;BME280;55778;54.346;10.210;2023-04-08T03:52:47;102094.34;;;5.28;100.00
68793;BME280;55778;54.346;10.210;2023-04-08T03:55:12;102091.31;;;5.34;100.00
68793;BME280;55778;54.346;10.210;2023-04-08T03:57:38;102087.09;;;5.11;100.00
68793;BME280;55778;54.346;10.210;2023-04-08T04:00:03;102098.78;;;5.12;100.00
68793;BME280;55778;54.346;10.210;2023-04-08T04:02:29;102100.53;;;5.13;100.00
68793;BME280;55778;54.346;10.210;2023-04-08T04:04:54;102101.88;;;5.04;100.00
68793;BME280;55778;54.346;10.210;2023-04-08T04:07:20;102103.13;;;4.97;100.00
68793;BME280;55778;54.346;10.210;2023-04-08T04:09:45;102100.28;;;5.00;100.00
68793;BME280;55778;54.346;10.210;2023-04-08T04:12:10;102108.78;;;5.10;100.00
68793;BME280;55778;54.346;10.210;2023-04-08T04:14:39;102109.03;;;5.05;100.00
68793;BME280;55778;54.346;10.210;2023-04-08T04:17:04;102113.78;;;5.00;100.00
68793;BME280;55778;54.346;10.210;2023-04-08T04:19:30;102118.09;;;5.04;100.00
68793;BME280;55778;54.346;10.210;2023-04-08T04:21:55;102123.22;;;4.92;100.00
68793;BME280;55778;54.346;10.210;2023-04-08T04:24:21;102123.22;;;4.92;100.00
68793;BME280;55778;54.346;10.210;2023-04-08T04:26:46;102124.34;;;4.88;100.00
68793;BME280;55778;54.346;10.210;2023-04-08T04:29:12;102128.94;;;4.86;100.00
68793;BME280;55778;54.346;10.210;2023-04-08T04:31:37;102134.03;;;4.92;100.00
68793;BME280;55778;54.346;10.210;2023-04-08T04:34:03;102129.97;;;4.83;100.00
68793;BME280;55778;54.346;10.210;2023-04-08T04:36:28;102135.53;;;4.80;100.00
68793;BME280;55778;54.346;10.210;2023-04-08T04:38:53;102136.44;;;4.79;100.00
68793;BME280;55778;54.346;10.210;2023-04-08T04:41:19;102131.94;;;4.80;100.00
68793;BME280;55778;54.346;10.210;2023-04-08T04:43:45;102137.25;;;4.81;100.00
68793;BME280;55778;54.346;10.210;2023-04-08T04:46:11;102136.44;;;4.79;100.00
68793;BME280;55778;54.346;10.210;2023-04-08T04:48:36;102136.44;;;4.79;100.00
68793;BME280;55778;54.346;10.210;2023-04-08T04:51:02;102138.38;;;4.77;100.00
68793;BME280;55778;54.346;10.210;2023-04-08T04:53:28;102145.88;;;4.71;100.00
68793;BME280;55778;54.346;10.210;2023-04-08T04:55:54;102141.16;;;4.76;100.00
68793;BME280;55778;54.346;10.210;2023-04-08T04:58:22;102134.72;;;4.78;100.00
68793;BME280;55778;54.346;10.210;2023-04-08T05:00:48;102142.25;;;4.72;100.00
68793;BME280;55778;54.346;10.210;2023-04-08T05:03:13;102149.16;;;4.77;100.00
68793;BME280;55778;54.346;10.210;2023-04-08T05:05:38;102144.16;;;4.87;100.00
68793;BME280;55778;54.346;10.210;2023-04-08T05:08:04;102150.47;;;4.87;100.00
68793;BME280;55778;54.346;10.210;2023-04-08T05:10:31;102155.53;;;4.76;100.00
68793;BME280;55778;54.346;10.210;2023-04-08T05:12:56;102152.66;;;4.79;100.00
68793;BME280;55778;54.346;10.210;2023-04-08T05:15:22;102161.41;;;4.84;100.00
68793;BME280;55778;54.346;10.210;2023-04-08T05:17:47;102171.56;;;4.79;100.00
68793;BME280;55778;54.346;10.210;2023-04-08T05:20:13;102160.75;;;4.79;100.00
68793;BME280;55778;54.346;10.210;2023-04-08T05:22:38;102156.59;;;4.72;100.00
68793;BME280;55778;54.346;10.210;2023-04-08T05:25:07;102168.75;;;4.64;100.00
68793;BME280;55778;54.346;10.210;2023-04-08T05:27:33;102164.88;;;4.51;100.00
68793;BME280;55778;54.346;10.210;2023-04-08T05:29:58;102169.91;;;4.58;100.00
68793;BME280;55778;54.346;10.210;2023-04-08T05:32:24;102165.06;;;4.65;100.00
68793;BME280;55778;54.346;10.210;2023-04-08T05:34:49;102169.41;;;4.69;100.00
68793;BME280;55778;54.346;10.210;2023-04-08T05:37:15;102169.34;;;4.70;100.00
68793;BME280;55778;54.346;10.210;2023-04-08T05:39:40;102168.38;;;4.71;100.00
68793;BME280;55778;54.346;10.210;2023-04-08T05:42:06;102171.88;;;4.73;100.00
68793;BME280;55778;54.346;10.210;2023-04-08T05:44:32;102169.56;;;4.66;100.00
68793;BME280;55778;54.346;10.210;2023-04-08T05:46:58;102175.50;;;4.72;100.00
68793;BME280;55778;54.346;10.210;2023-04-08T05:49:24;102180.38;;;4.83;100.00
68793;BME280;55778;54.346;10.210;2023-04-08T05:51:49;102176.94;;;4.79;100.00
68793;BME280;55778;54.346;10.210;2023-04-08T05:54:18;102172.50;;;4.78;100.00
68793;BME280;55778;54.346;10.210;2023-04-08T05:56:43;102171.25;;;4.85;100.00
68793;BME280;55778;54.346;10.210;2023-04-08T05:59:10;102176.03;;;4.80;100.00
68793;BME280;55778;54.346;10.210;2023-04-08T06:01:36;102178.13;;;4.74;100.00
68793;BME280;55778;54.346;10.210;2023-04-08T06:04:01;102186.22;;;4.74;100.00
68793;BME280;55778;54.346;10.210;2023-04-08T06:06:26;102177.28;;;4.73;100.00
68793;BME280;55778;54.346;10.210;2023-04-08T06:08:52;102186.69;;;4.65;100.00
68793;BME280;55778;54.346;10.210;2023-04-08T06:11:17;102183.47;;;4.75;100.00
68793;BME280;55778;54.346;10.210;2023-04-08T06:13:43;102176.09;;;4.79;100.00
68793;BME280;55778;54.346;10.210;2023-04-08T06:16:13;102191.78;;;4.71;100.00
68793;BME280;55778;54.346;10.210;2023-04-08T06:18:39;102195.66;;;4.65;100.00
68793;BME280;55778;54.346;10.210;2023-04-08T06:21:04;102191.38;;;4.61;100.00
68793;BME280;55778;54.346;10.210;2023-04-08T06:23:30;102194.69;;;4.66;100.00
68793;BME280;55778;54.346;10.210;2023-04-08T06:25:55;102188.53;;;4.64;100.00
68793;BME280;55778;54.346;10.210;2023-04-08T06:28:21;102192.38;;;4.59;100.00
68793;BME280;55778;54.346;10.210;2023-04-08T06:30:46;102198.06;;;4.71;100.00
68793;BME280;55778;54.346;10.210;2023-04-08T06:33:12;102198.81;;;4.75;100.00
68793;BME280;55778;54.346;10.210;2023-04-08T06:35:40;102208.72;;;4.74;100.00
68793;BME280;55778;54.346;10.210;2023-04-08T06:38:06;102199.97;;;4.88;100.00
68793;BME280;55778;54.346;10.210;2023-04-08T06:40:31;102206.81;;;4.95;100.00
68793;BME280;55778;54.346;10.210;2023-04-08T06:43:00;102213.38;;;4.89;100.00
68793;BME280;55778;54.346;10.210;2023-04-08T06:45:26;102211.25;;;4.96;100.00
68793;BME280;55778;54.346;10.210;2023-04-08T06:47:52;102227.53;;;4.94;100.00
68793;BME280;55778;54.346;10.210;2023-04-08T06:50:20;102231.19;;;4.93;100.00
68793;BME280;55778;54.346;10.210;2023-04-08T06:52:46;102233.97;;;4.92;100.00
68793;BME280;55778;54.346;10.210;2023-04-08T06:55:11;102230.50;;;5.07;100.00
68793;BME280;55778;54.346;10.210;2023-04-08T06:57:37;102232.19;;;5.09;100.00
68793;BME280;55778;54.346;10.210;2023-04-08T07:00:03;102236.25;;;5.18;100.00
68793;BME280;55778;54.346;10.210;2023-04-08T07:02:29;102237.28;;;5.15;100.00
68793;BME280;55778;54.346;10.210;2023-04-08T07:04:54;102231.56;;;5.04;100.00
68793;BME280;55778;54.346;10.210;2023-04-08T07:07:19;102236.59;;;5.12;100.00
68793;BME280;55778;54.346;10.210;2023-04-08T07:09:45;102235.34;;;5.00;100.00
68793;BME280;55778;54.346;10.210;2023-04-08T07:12:11;102236.88;;;5.06;100.00
68793;BME280;55778;54.346;10.210;2023-04-08T07:14:37;102237.34;;;5.14;100.00
68793;BME280;55778;54.346;10.210;2023-04-08T07:17:03;102245.97;;;5.22;100.00
68793;BME280;55778;54.346;10.210;2023-04-08T07:19:30;102244.72;;;5.29;100.00
68793;BME280;55778;54.346;10.210;2023-04-08T07:21:55;102251.09;;;5.45;100.00
68793;BME280;55778;54.346;10.210;2023-04-08T07:24:22;102249.50;;;5.41;100.00
68793;BME280;55778;54.346;10.210;2023-04-08T07:26:48;102253.25;;;5.38;100.00
68793;BME280;55778;54.346;10.210;2023-04-08T07:29:14;102256.97;;;5.36;100.00
68793;BME280;55778;54.346;10.210;2023-04-08T07:31:42;102264.28;;;5.34;100.00
68793;BME280;55778;54.346;10.210;2023-04-08T07:34:08;102261.84;;;5.46;100.00
68793;BME280;55778;54.346;10.210;2023-04-08T07:36:33;102259.94;;;5.48;100.00
68793;BME280;55778;54.346;10.210;2023-04-08T07:38:59;102261.28;;;5.57;100.00
68793;BME280;55778;54.346;10.210;2023-04-08T07:41:24;102261.53;;;5.52;100.00
68793;BME280;55778;54.346;10.210;2023-04-08T07:43:49;102266.97;;;5.69;100.00
68793;BME280;55778;54.346;10.210;2023-04-08T07:46:15;102267.75;;;5.71;100.00
68793;BME280;55778;54.346;10.210;2023-04-08T07:48:40;102271.56;;;5.67;100.00
68793;BME280;55778;54.346;10.210;2023-04-08T07:51:07;102270.22;;;5.76;100.00
68793;BME280;55778;54.346;10.210;2023-04-08T07:53:33;102273.06;;;5.73;100.00
68793;BME280;55778;54.346;10.210;2023-04-08T07:56:00;102280.81;;;5.80;100.00
68793;BME280;55778;54.346;10.210;2023-04-08T07:58:28;102283.66;;;5.77;100.00
68793;BME280;55778;54.346;10.210;2023-04-08T08:00:56;102283.16;;;5.88;100.00
68793;BME280;55778;54.346;10.210;2023-04-08T08:03:21;102273.16;;;5.71;100.00
68793;BME280;55778;54.346;10.210;2023-04-08T08:05:47;102274.41;;;5.83;100.00
68793;BME280;55778;54.346;10.210;2023-04-08T08:08:13;102282.44;;;6.01;100.00
68793;BME280;55778;54.346;10.210;2023-04-08T08:10:39;102281.41;;;5.87;100.00
68793;BME280;55778;54.346;10.210;2023-04-08T08:13:05;102284.66;;;5.93;100.00
68793;BME280;55778;54.346;10.210;2023-04-08T08:15:31;102286.47;;;6.10;100.00
68793;BME280;55778;54.346;10.210;2023-04-08T08:17:57;102293.50;;;5.97;100.00
68793;BME280;55778;54.346;10.210;2023-04-08T08:20:22;102288.81;;;6.00;100.00
68793;BME280;55778;54.346;10.210;2023-04-08T08:22:48;102291.25;;;6.22;100.00
68793;BME280;55778;54.346;10.210;2023-04-08T08:25:13;102293.44;;;6.16;100.00
68793;BME280;55778;54.346;10.210;2023-04-08T08:27:38;102300.38;;;6.37;100.00
68793;BME280;55778;54.346;10.210;2023-04-08T08:30:06;102300.47;;;6.35;100.00
68793;BME280;55778;54.346;10.210;2023-04-08T08:32:32;102297.78;;;6.18;100.00
68793;BME280;55778;54.346;10.210;2023-04-08T08:34:58;102296.03;;;6.00;100.00
68793;BME280;55778;54.346;10.210;2023-04-08T08:37:23;102301.94;;;5.91;100.00
68793;BME280;55778;54.346;10.210;2023-04-08T08:39:49;102308.72;;;5.81;100.00
68793;BME280;55778;54.346;10.210;2023-04-08T08:42:22;102313.06;;;5.85;100.00
68793;BME280;55778;54.346;10.210;2023-04-08T08:44:48;102312.28;;;5.83;100.00
68793;BME280;55778;54.346;10.210;2023-04-08T08:47:17;102313.31;;;5.97;100.00
68793;BME280;55778;54.346;10.210;2023-04-08T08:49:43;102312.28;;;6.00;100.00
68793;BME280;55778;54.346;10.210;2023-04-08T08:52:09;102308.59;;;6.01;100.00
68793;BME280;55778;54.346;10.210;2023-04-08T08:54:36;102311.88;;;6.07;100.00
68793;BME280;55778;54.346;10.210;2023-04-08T08:57:02;102313.78;;;6.05;100.00
68793;BME280;55778;54.346;10.210;2023-04-08T08:59:27;102306.22;;;6.29;100.00
68793;BME280;55778;54.346;10.210;2023-04-08T09:01:53;102306.28;;;6.28;100.00
68793;BME280;55778;54.346;10.210;2023-04-08T09:04:27;102298.53;;;6.22;100.00
68793;BME280;55778;54.346;10.210;2023-04-08T09:07:10;102308.31;;;6.24;100.00
68793;BME280;55778;54.346;10.210;2023-04-08T09:09:52;102307.56;;;6.21;100.00
68793;BME280;55778;54.346;10.210;2023-04-08T09:12:17;102313.38;;;6.13;100.00
68793;BME280;55778;54.346;10.210;2023-04-08T09:14:43;102314.34;;;6.12;100.00
68793;BME280;55778;54.346;10.210;2023-04-08T09:17:09;102322.81;;;6.23;100.00
68793;BME280;55778;54.346;10.210;2023-04-08T09:19:34;102320.19;;;6.22;100.00
68793;BME280;55778;54.346;10.210;2023-04-08T09:22:08;102321.97;;;6.38;100.00
68793;BME280;55778;54.346;10.210;2023-04-08T09:24:34;102321.91;;;6.23;100.00
68793;BME280;55778;54.346;10.210;2023-04-08T09:27:01;102324.69;;;6.21;100.00
68793;BME280;55778;54.346;10.210;2023-04-08T09:29:27;102332.50;;;6.27;100.00
68793;BME280;55778;54.346;10.210;2023-04-08T09:31:54;102330.91;;;6.40;100.00
68793;BME280;55778;54.346;10.210;2023-04-08T09:34:20;102336.97;;;6.45;100.00
68793;BME280;55778;54.346;10.210;2023-04-08T09:36:51;102341.28;;;6.65;100.00
68793;BME280;55778;54.346;10.210;2023-04-08T09:39:17;102339.78;;;6.76;100.00
68793;BME280;55778;54.346;10.210;2023-04-08T09:41:43;102336.72;;;6.82;99.59
68793;BME280;55778;54.346;10.210;2023-04-08T09:44:10;102340.03;;;6.87;99.74
68793;BME280;55778;54.346;10.210;2023-04-08T09:49:28;102348.63;;;6.63;99.24
68793;BME280;55778;54.346;10.210;2023-04-08T09:52:16;102349.69;;;6.43;100.00
68793;BME280;55778;54.346;10.210;2023-04-08T09:57:43;102357.16;;;6.55;99.55
68793;BME280;55778;54.346;10.210;2023-04-08T10:00:12;102352.84;;;6.68;99.99
68793;BME280;55778;54.346;10.210;2023-04-08T10:03:04;102359.38;;;6.64;100.00
68793;BME280;55778;54.346;10.210;2023-04-08T10:05:40;102358.81;;;6.58;100.00
68793;BME280;55778;54.346;10.210;2023-04-08T10:08:09;102359.75;;;6.74;99.61
68793;BME280;55778;54.346;10.210;2023-04-08T10:10:37;102362.34;;;6.60;100.00
68793;BME280;55778;54.346;10.210;2023-04-08T10:13:07;102362.94;;;6.65;100.00
68793;BME280;55778;54.346;10.210;2023-04-08T10:15:33;102355.63;;;6.67;100.00
68793;BME280;55778;54.346;10.210;2023-04-08T10:23:09;102360.06;;;6.85;100.00
68793;BME280;55778;54.346;10.210;2023-04-08T10:25:37;102354.81;;;6.97;99.52
68793;BME280;55778;54.346;10.210;2023-04-08T10:33:54;102359.75;;;7.06;97.43
68793;BME280;55778;54.346;10.210;2023-04-08T10:36:08;102352.66;;;6.88;98.51
68793;BME280;55778;54.346;10.210;2023-04-08T10:38:38;102367.34;;;6.67;100.00
68793;BME280;55778;54.346;10.210;2023-04-08T10:41:03;102364.06;;;6.78;100.00
68793;BME280;55778;54.346;10.210;2023-04-08T10:43:33;102362.94;;;6.82;100.00
68793;BME280;55778;54.346;10.210;2023-04-08T10:45:58;102353.75;;;6.84;100.00
68793;BME280;55778;54.346;10.210;2023-04-08T10:48:24;102349.97;;;7.04;99.40
68793;BME280;55778;54.346;10.210;2023-04-08T10:51:00;102355.59;;;6.84;100.00
68793;BME280;55778;54.346;10.210;2023-04-08T10:53:31;102346.97;;;6.93;99.89
68793;BME280;55778;54.346;10.210;2023-04-08T10:56:07;102346.66;;;7.14;99.06
68793;BME280;55778;54.346;10.210;2023-04-08T10:58:46;102356.88;;;7.09;99.44
68793;BME280;55778;54.346;10.210;2023-04-08T11:01:13;102345.28;;;7.38;97.44
68793;BME280;55778;54.346;10.210;2023-04-08T11:03:38;102342.13;;;7.30;98.68
68793;BME280;55778;54.346;10.210;2023-04-08T11:06:06;102346.69;;;7.45;96.60
68793;BME280;55778;54.346;10.210;2023-04-08T11:08:32;102349.66;;;7.56;96.12
68793;BME280;55778;54.346;10.210;2023-04-08T11:10:59;102339.22;;;7.64;97.07
68793;BME280;55778;54.346;10.210;2023-04-08T11:13:26;102340.72;;;7.70;96.12
68793;BME280;55778;54.346;10.210;2023-04-08T11:15:52;102345.59;;;7.79;95.77
68793;BME280;55778;54.346;10.210;2023-04-08T11:18:18;102344.69;;;7.94;95.00
68793;BME280;55778;54.346;10.210;2023-04-08T11:20:43;102342.41;;;8.02;95.02
68793;BME280;55778;54.346;10.210;2023-04-08T11:23:16;102344.13;;;8.18;93.02
68793;BME280;55778;54.346;10.210;2023-04-08T11:25:43;102344.03;;;8.20;93.15
68793;BME280;55778;54.346;10.210;2023-04-08T11:28:10;102340.28;;;8.23;92.80
68793;BME280;55778;54.346;10.210;2023-04-08T11:30:38;102343.94;;;8.22;93.20
68793;BME280;55778;54.346;10.210;2023-04-08T11:33:05;102342.34;;;8.33;93.26
68793;BME280;55778;54.346;10.210;2023-04-08T11:35:30;102344.69;;;8.39;93.12
68793;BME280;55778;54.346;10.210;2023-04-08T11:37:56;102350.97;;;8.26;91.81
68793;BME280;55778;54.346;10.210;2023-04-08T11:40:22;102348.41;;;8.38;92.44
68793;BME280;55778;54.346;10.210;2023-04-08T11:42:49;102351.44;;;8.62;91.34
68793;BME280;55778;54.346;10.210;2023-04-08T11:45:16;102351.44;;;8.62;90.65
68793;BME280;55778;54.346;10.210;2023-04-08T11:47:42;102358.75;;;8.89;89.28
68793;BME280;55778;54.346;10.210;2023-04-08T11:50:08;102355.03;;;8.90;88.45
68793;BME280;55778;54.346;10.210;2023-04-08T11:52:44;102353.41;;;8.88;88.19
68793;BME280;55778;54.346;10.210;2023-04-08T11:55:11;102346.09;;;8.74;88.64
68793;BME280;55778;54.346;10.210;2023-04-08T11:57:37;102350.38;;;8.64;89.90
68793;BME280;55778;54.346;10.210;2023-04-08T12:00:06;102351.06;;;8.82;89.54
68793;BME280;55778;54.346;10.210;2023-04-08T12:02:32;102350.56;;;9.31;86.61
68793;BME280;55778;54.346;10.210;2023-04-08T12:04:58;102347.56;;;9.36;85.53
68793;BME280;55778;54.346;10.210;2023-04-08T12:07:23;102349.09;;;9.26;86.36
68793;BME280;55778;54.346;10.210;2023-04-08T12:09:48;102351.72;;;9.41;85.74
68793;BME280;55778;54.346;10.210;2023-04-08T12:12:14;102354.19;;;9.58;85.86
68793;BME280;55778;54.346;10.210;2023-04-08T12:14:39;102354.69;;;9.65;83.99
68793;BME280;55778;54.346;10.210;2023-04-08T12:17:05;102359.44;;;9.61;83.44
68793;BME280;55778;54.346;10.210;2023-04-08T12:19:30;102362.22;;;9.47;84.22
68793;BME280;55778;54.346;10.210;2023-04-08T12:21:56;102363.25;;;9.85;83.23
68793;BME280;55778;54.346;10.210;2023-04-08T12:24:22;102356.19;;;9.83;82.77
68793;BME280;55778;54.346;10.210;2023-04-08T12:26:47;102363.53;;;9.95;82.99
68793;BME280;55778;54.346;10.210;2023-04-08T12:29:13;102355.13;;;10.12;82.47
68793;BME280;55778;54.346;10.210;2023-04-08T12:31:41;102365.97;;;10.26;82.16
68793;BME280;55778;54.346;10.210;2023-04-08T12:34:09;102364.00;;;10.28;80.80
68793;BME280;55778;54.346;10.210;2023-04-08T12:36:34;102363.66;;;10.20;80.48
68793;BME280;55778;54.346;10.210;2023-04-08T12:39:00;102366.16;;;10.23;81.64
68793;BME280;55778;54.346;10.210;2023-04-08T12:41:25;102362.16;;;10.29;80.68
68793;BME280;55778;54.346;10.210;2023-04-08T12:43:51;102362.44;;;10.12;81.71
68793;BME280;55778;54.346;10.210;2023-04-08T12:46:16;102363.28;;;10.64;79.84
68793;BME280;55778;54.346;10.210;2023-04-08T12:48:42;102355.69;;;10.69;78.84
68793;BME280;55778;54.346;10.210;2023-04-08T12:51:09;102360.06;;;10.84;78.90
68793;BME280;55778;54.346;10.210;2023-04-08T12:53:34;102349.13;;;10.71;78.75
68793;BME280;55778;54.346;10.210;2023-04-08T12:56:00;102349.56;;;10.65;79.78
68793;BME280;55778;54.346;10.210;2023-04-08T12:58:25;102359.63;;;10.90;78.43
68793;BME280;55778;54.346;10.210;2023-04-08T13:00:51;102350.00;;;10.97;77.50